Terminal Aerodrome Forecast
Issued by NWS

Current Version | Previous Version | Text Only | Print | Product List | Glossary On
Versions: 1 2 3 4 5 6 7 8 9 10 11 12
324
FTUS45 KREV 262320
TAFMMH
TAF
KMMH 262320Z 2700/2724 30008KT P6SM VCSH SCT035 BKN060
     FM270200 27005KT P6SM SCT060
     FM271800 12005KT P6SM SCT060
     FM272100 26008KT P6SM VCTS SCT060CB=

USA.gov is the U.S. government's official web portal to all federal, state and local government web resources and services.